Terminal Aerodrome Forecast
Issued by NWS

Home | Current Version | Previous Version | Text Only | Print | Product List | Glossary On
Versions: 1 2 3 4 5 6 7 8 9 10 11 12 13 14
000
FTUS41 KBOX 011723
TAFACK
TAF
KACK 011723Z 0118/0218 13007KT P6SM VCSH OVC070
     FM012000 11008KT P6SM -SHRA OVC050
     FM020400 07009KT 2SM -DZ BR OVC003
     FM021400 03009KT 2SM -DZ BR OVC003
     FM021600 03007KT 4SM BR VCSH OVC100=

USA.gov is the U.S. government's official web portal to all federal, state and local government web resources and services.